Time;durP1;ratioP1;P1;durP2;ratioP2;P2;SDS_P1;SDS_P2;PMS_P1;PMS_P2;Temp;Humidity;BMP_temperature;BMP_pressure;BME280_temperature;BME280_humidity;BME280_pressure;Samples;Min_cycle;Max_cycle;Signal;HPM_P1;HPM_P2
2024/01/21 00:01:46;;;;;;;4.03;3.30;;;;;;;0.74;56.85;102424.41;5018784;27;97146;-52
2024/01/21 00:04:12;;;;;;;4.13;3.43;;;;;;;0.75;56.83;102436.06;5020720;27;97484;-52
2024/01/21 00:06:37;;;;;;;5.17;3.40;;;;;;;0.79;57.11;102423.19;5018812;27;97396;-53
2024/01/21 00:09:02;;;;;;;6.07;3.87;;;;;;;0.80;56.88;102430.19;5017625;27;96996;-52
2024/01/21 00:11:28;;;;;;;6.53;4.40;;;;;;;0.83;56.87;102429.34;5016756;27;98516;-53
2024/01/21 00:13:53;;;;;;;4.00;3.17;;;;;;;0.84;56.67;102425.47;5023894;27;97268;-52
2024/01/21 00:16:18;;;;;;;7.87;3.90;;;;;;;0.82;56.50;102425.09;5014902;27;97248;-52
2024/01/21 00:18:44;;;;;;;3.17;2.70;;;;;;;0.82;56.68;102423.16;5021632;27;97137;-52
2024/01/21 00:21:09;;;;;;;4.67;3.57;;;;;;;0.82;56.34;102416.94;5018674;27;97857;-52
2024/01/21 00:23:35;;;;;;;5.87;3.90;;;;;;;0.78;56.52;102419.69;5019610;27;97059;-52
2024/01/21 00:26:00;;;;;;;5.30;3.50;;;;;;;0.78;56.21;102416.94;5020815;27;97278;-52
2024/01/21 00:28:25;;;;;;;7.33;4.23;;;;;;;0.74;56.37;102416.22;5017014;27;98275;-52
2024/01/21 00:30:51;;;;;;;5.37;3.77;;;;;;;0.73;56.46;102406.53;5019365;27;97258;-52
2024/01/21 00:33:16;;;;;;;5.17;3.43;;;;;;;0.72;56.58;102396.78;5019525;27;97389;-52
2024/01/21 00:35:41;;;;;;;4.60;4.00;;;;;;;0.72;56.47;102399.50;5018388;27;97096;-52
2024/01/21 00:38:07;;;;;;;4.50;3.67;;;;;;;0.72;56.64;102393.28;5015896;27;98705;-52
2024/01/21 00:40:33;;;;;;;4.77;3.90;;;;;;;0.71;56.65;102394.47;5019418;27;98197;-52
2024/01/21 00:42:59;;;;;;;8.70;3.63;;;;;;;0.67;56.24;102394.50;5019347;27;96834;-52
2024/01/21 00:45:28;;;;;;;7.63;3.70;;;;;;;0.69;56.10;102386.72;5019512;27;97528;-52
2024/01/21 00:47:54;;;;;;;6.87;3.60;;;;;;;0.62;56.38;102373.16;5019203;27;96864;-52
2024/01/21 00:50:19;;;;;;;3.83;3.40;;;;;;;0.62;56.03;102378.63;5016580;27;97541;-52
2024/01/21 00:52:44;;;;;;;4.33;3.47;;;;;;;0.61;56.19;102379.00;5018549;27;97213;-52
2024/01/21 00:55:10;;;;;;;4.77;4.00;;;;;;;0.60;56.45;102372.81;5017568;27;97288;-52
2024/01/21 00:57:35;;;;;;;4.27;3.20;;;;;;;0.60;56.35;102361.13;5017654;27;97334;-52
2024/01/21 01:00:01;;;;;;;4.33;3.00;;;;;;;0.60;56.30;102356.47;5018516;27;96864;-53
2024/01/21 01:02:26;;;;;;;5.87;3.67;;;;;;;0.59;56.52;102341.28;5019994;27;96760;-52
2024/01/21 01:04:51;;;;;;;3.93;3.00;;;;;;;0.59;56.61;102330.41;5018965;27;96911;-52
2024/01/21 01:07:17;;;;;;;5.07;4.03;;;;;;;0.58;56.48;102339.75;5016732;27;97585;-52
2024/01/21 01:09:42;;;;;;;4.50;3.37;;;;;;;0.59;56.47;102337.78;5018894;27;97876;-52
2024/01/21 01:12:08;;;;;;;4.83;3.37;;;;;;;0.59;56.15;102349.47;5019435;27;96641;-53
2024/01/21 01:14:33;;;;;;;4.43;3.70;;;;;;;0.60;56.24;102344.78;5017169;27;96883;-52
2024/01/21 01:16:59;;;;;;;6.97;3.87;;;;;;;0.60;56.13;102342.06;5022134;27;97220;-52
2024/01/21 01:19:24;;;;;;;6.33;4.70;;;;;;;0.56;56.17;102333.94;5017296;27;97167;-52
2024/01/21 01:21:50;;;;;;;4.73;3.67;;;;;;;0.53;56.09;102340.19;5020300;27;96581;-52
2024/01/21 01:24:16;;;;;;;7.67;4.37;;;;;;;0.52;56.00;102337.88;5018977;27;97474;-51
2024/01/21 01:26:42;;;;;;;7.83;3.77;;;;;;;0.50;56.09;102319.22;5019327;27;97369;-52
2024/01/21 01:29:07;;;;;;;6.47;4.47;;;;;;;0.47;55.82;102320.03;5016467;27;97607;-52
2024/01/21 01:31:33;;;;;;;8.10;3.90;;;;;;;0.46;56.04;102323.94;5019261;27;97335;-51
2024/01/21 01:33:58;;;;;;;5.70;3.93;;;;;;;0.43;56.05;102324.75;5020042;27;97311;-52
2024/01/21 01:36:23;;;;;;;5.07;3.50;;;;;;;0.41;55.89;102320.88;5018378;27;97105;-52
2024/01/21 01:38:49;;;;;;;6.70;3.70;;;;;;;0.39;56.10;102317.81;5016798;27;96978;-52
2024/01/21 01:41:14;;;;;;;5.57;3.93;;;;;;;0.38;55.90;102313.53;5017883;27;96730;-51
2024/01/21 01:43:41;;;;;;;3.50;3.20;;;;;;;0.34;55.89;102310.84;5018361;27;97146;-52
2024/01/21 01:46:06;;;;;;;3.63;3.13;;;;;;;0.35;55.65;102308.88;5017662;27;96633;-52
2024/01/21 01:48:32;;;;;;;5.47;4.17;;;;;;;0.28;55.72;102302.34;5021982;27;97354;-52
2024/01/21 01:50:59;;;;;;;4.40;3.17;;;;;;;0.24;55.61;102304.31;5018881;27;97207;-52
2024/01/21 01:53:25;;;;;;;5.50;3.57;;;;;;;0.22;55.80;102311.34;5014837;27;97264;-52
2024/01/21 01:55:51;;;;;;;3.63;2.97;;;;;;;0.20;55.58;102298.16;5020171;27;97524;-52
2024/01/21 01:58:18;;;;;;;3.00;2.70;;;;;;;0.16;55.55;102300.16;5015148;27;97575;-51
2024/01/21 02:00:45;;;;;;;4.17;3.30;;;;;;;0.13;55.39;102303.66;5019209;27;96782;-52
2024/01/21 02:03:12;;;;;;;5.60;3.43;;;;;;;0.14;55.54;102290.84;5019131;27;96781;-52
2024/01/21 02:05:37;;;;;;;3.47;2.90;;;;;;;0.14;55.38;102290.84;5017166;27;97583;-51
2024/01/21 02:08:03;;;;;;;4.40;2.80;;;;;;;0.13;55.30;102289.28;5018453;27;97544;-52
2024/01/21 02:10:29;;;;;;;5.53;3.00;;;;;;;0.12;55.46;102287.75;5015974;27;97168;-52
2024/01/21 02:12:55;;;;;;;3.73;2.83;;;;;;;0.08;55.21;102287.75;5020052;27;96688;-52
2024/01/21 02:15:21;;;;;;;7.10;3.63;;;;;;;0.03;55.07;102284.72;5018940;27;96863;-52
2024/01/21 02:17:47;;;;;;;4.13;2.83;;;;;;;0.02;55.12;102283.16;5017520;27;97001;-52
2024/01/21 02:20:13;;;;;;;5.63;3.40;;;;;;;-0.02;55.27;102272.31;5018192;27;96729;-52
2024/01/21 02:22:42;;;;;;;3.60;3.10;;;;;;;-0.02;55.35;102290.59;5019537;27;97745;-52
2024/01/21 02:25:09;;;;;;;3.70;2.80;;;;;;;-0.01;55.40;102276.59;5017816;27;96632;-52
2024/01/21 02:27:36;;;;;;;2.87;2.67;;;;;;;-0.02;55.48;102274.28;5017183;27;97843;-52
2024/01/21 02:30:03;;;;;;;4.97;3.30;;;;;;;-0.02;55.34;102271.53;5022325;27;97196;-51
2024/01/21 02:32:28;;;;;;;3.13;2.80;;;;;;;-0.04;55.36;102266.53;5014290;27;96820;-51
2024/01/21 02:34:54;;;;;;;3.30;2.70;;;;;;;-0.05;55.33;102264.22;5015958;27;97369;-52
2024/01/21 02:37:19;;;;;;;3.20;2.90;;;;;;;-0.04;55.48;102263.03;5018388;27;97274;-52
2024/01/21 02:39:45;;;;;;;3.33;2.60;;;;;;;-0.01;55.38;102259.50;5016294;27;96976;-53
2024/01/21 02:42:10;;;;;;;2.87;2.53;;;;;;;-0.00;55.33;102269.19;5022344;27;96822;-51
2024/01/21 02:44:36;;;;;;;3.03;2.73;;;;;;;0.02;55.43;102266.84;5018300;27;97328;-52
2024/01/21 02:47:01;;;;;;;3.17;2.80;;;;;;;0.04;55.44;102267.97;5018750;27;97138;-52
2024/01/21 02:49:28;;;;;;;3.03;2.40;;;;;;;0.06;55.49;102264.88;5017634;27;97219;-53
2024/01/21 02:51:57;;;;;;;2.30;2.10;;;;;;;0.08;55.39;102257.84;5017961;27;96979;-52
2024/01/21 02:54:23;;;;;;;3.40;2.87;;;;;;;0.11;55.35;102258.97;5014881;27;97665;-52
2024/01/21 02:56:49;;;;;;;4.27;3.00;;;;;;;0.17;55.24;102260.84;5014479;27;97062;-52
2024/01/21 02:59:14;;;;;;;2.90;2.60;;;;;;;0.22;54.99;102260.41;5018776;27;97065;-52
2024/01/21 03:01:42;;;;;;;5.70;2.80;;;;;;;0.25;54.75;102258.84;5017620;27;96955;-52
2024/01/21 03:04:11;;;;;;;3.57;2.80;;;;;;;0.27;54.82;102259.97;5018028;27;96709;-52
2024/01/21 03:06:37;;;;;;;2.57;2.33;;;;;;;0.32;54.49;102247.88;5019130;27;96801;-52
2024/01/21 03:09:03;;;;;;;3.93;2.63;;;;;;;0.35;54.66;102244.31;5020992;27;97166;-51
2024/01/21 03:11:30;;;;;;;3.07;2.40;;;;;;;0.37;54.41;102236.53;5020916;27;96830;-52
2024/01/21 03:13:55;;;;;;;2.70;2.47;;;;;;;0.39;54.29;102231.44;5023676;27;99759;-52
2024/01/21 03:16:20;;;;;;;3.07;2.47;;;;;;;0.42;54.32;102230.63;5022286;27;97035;-52
2024/01/21 03:18:46;;;;;;;2.50;2.27;;;;;;;0.45;54.32;102229.81;5021136;27;97072;-51
2024/01/21 03:21:11;;;;;;;3.47;2.50;;;;;;;0.48;54.34;102220.81;5022376;27;96769;-52
2024/01/21 03:23:36;;;;;;;3.97;3.00;;;;;;;0.52;54.29;102218.06;5018542;27;97407;-52
2024/01/21 03:26:02;;;;;;;4.10;3.10;;;;;;;0.52;54.03;102207.19;5017957;27;97123;-52
2024/01/21 03:28:27;;;;;;;2.37;2.17;;;;;;;0.54;54.16;102211.00;5017967;27;97366;-52
2024/01/21 03:30:53;;;;;;;3.30;2.30;;;;;;;0.53;54.17;102204.03;5024642;27;97058;-52
2024/01/21 03:33:18;;;;;;;2.20;2.00;;;;;;;0.57;54.22;102206.72;5020593;27;97849;-51
2024/01/21 03:35:43;;;;;;;2.63;2.40;;;;;;;0.58;53.94;102205.53;5022210;27;97102;-52
2024/01/21 03:38:09;;;;;;;3.20;2.43;;;;;;;0.60;54.04;102197.72;5019458;27;97177;-52
2024/01/21 03:40:34;;;;;;;2.37;2.17;;;;;;;0.61;53.71;102183.69;5017200;27;97301;-52
2024/01/21 03:42:59;;;;;;;2.57;2.37;;;;;;;0.63;54.05;102175.88;5019847;27;97265;-52
2024/01/21 03:45:25;;;;;;;2.67;2.20;;;;;;;0.66;53.61;102177.03;5015205;27;97001;-51
2024/01/21 03:47:50;;;;;;;2.67;2.23;;;;;;;0.69;53.67;102168.03;5019363;27;96874;-52
2024/01/21 03:50:18;;;;;;;2.63;2.40;;;;;;;0.72;53.52;102178.09;5022963;27;96839;-52
2024/01/21 03:52:44;;;;;;;2.80;2.37;;;;;;;0.75;53.26;102180.00;5020723;27;97894;-52
2024/01/21 03:55:10;;;;;;;2.23;2.03;;;;;;;0.77;53.16;102178.41;5016822;27;99194;-51
2024/01/21 03:57:36;;;;;;;3.73;2.20;;;;;;;0.80;53.21;102166.69;5021195;27;97403;-52
2024/01/21 04:00:02;;;;;;;2.30;2.00;;;;;;;0.82;53.07;102166.28;5020009;27;97196;-52
2024/01/21 04:02:29;;;;;;;2.33;2.13;;;;;;;0.87;53.35;102161.13;5016339;27;97222;-52
2024/01/21 04:04:55;;;;;;;2.40;1.87;;;;;;;0.90;53.16;102152.16;5021830;27;97190;-52
2024/01/21 04:07:21;;;;;;;2.00;1.90;;;;;;;0.93;53.22;102147.81;5021151;27;96678;-52
2024/01/21 04:09:46;;;;;;;2.93;1.97;;;;;;;0.92;53.09;102135.38;5016492;27;97376;-52
2024/01/21 04:12:12;;;;;;;2.10;1.90;;;;;;;0.90;52.97;102146.69;5020449;27;97560;-52
2024/01/21 04:14:38;;;;;;;4.00;1.93;;;;;;;0.91;53.01;102142.78;5017413;27;97617;-53
2024/01/21 04:17:04;;;;;;;2.27;1.63;;;;;;;0.93;52.79;102134.94;5021150;27;97227;-53
2024/01/21 04:19:29;;;;;;;3.33;1.80;;;;;;;0.97;53.19;102134.91;5018965;27;96801;-52
2024/01/21 04:21:55;;;;;;;2.47;2.27;;;;;;;0.98;52.56;102142.66;5018470;27;97089;-52
2024/01/21 04:24:20;;;;;;;2.60;2.00;;;;;;;0.94;52.58;102119.38;5020577;27;96917;-53
2024/01/21 04:26:45;;;;;;;2.90;1.80;;;;;;;0.92;52.74;102117.06;5021625;27;97002;-53
2024/01/21 04:29:11;;;;;;;2.13;1.60;;;;;;;0.90;52.81;102103.09;5018539;27;97017;-52
2024/01/21 04:31:36;;;;;;;1.70;1.60;;;;;;;0.88;52.70;102113.66;5019428;27;97280;-53
2024/01/21 04:34:02;;;;;;;1.70;1.60;;;;;;;0.89;52.61;102115.16;5019402;27;97197;-52
2024/01/21 04:36:27;;;;;;;2.20;2.00;;;;;;;0.88;52.33;102116.38;5018043;27;96783;-52
2024/01/21 04:38:53;;;;;;;2.43;1.90;;;;;;;0.88;52.56;102094.56;5019154;27;96921;-53
2024/01/21 04:41:19;;;;;;;2.60;1.87;;;;;;;0.84;52.74;102091.13;5019771;27;96852;-52
2024/01/21 04:43:44;;;;;;;1.43;1.33;;;;;;;0.82;52.48;102079.91;5020915;27;98113;-52
2024/01/21 04:46:09;;;;;;;1.57;1.47;;;;;;;0.81;52.61;102080.28;5023241;27;97011;-53
2024/01/21 04:48:35;;;;;;;2.37;1.40;;;;;;;0.78;52.61;102078.41;5018238;27;96806;-53
2024/01/21 04:51:00;;;;;;;1.70;1.60;;;;;;;0.77;52.52;102072.19;5017335;27;97221;-52
2024/01/21 04:53:26;;;;;;;1.80;1.33;;;;;;;0.77;52.57;102071.41;5016060;27;97868;-52
2024/01/21 04:55:51;;;;;;;2.07;1.60;;;;;;;0.75;52.25;102069.09;5022938;27;96915;-52
2024/01/21 04:58:16;;;;;;;1.90;1.63;;;;;;;0.73;52.39;102067.97;5019892;27;97255;-52
2024/01/21 05:00:42;;;;;;;1.37;1.27;;;;;;;0.72;52.32;102064.47;5017215;27;97343;-52
2024/01/21 05:03:08;;;;;;;2.13;1.63;;;;;;;0.71;52.49;102064.91;5016658;27;96706;-52
2024/01/21 05:05:33;;;;;;;1.93;1.33;;;;;;;0.69;52.09;102059.88;5021608;27;97096;-52
2024/01/21 05:07:59;;;;;;;1.60;1.50;;;;;;;0.66;51.91;102055.25;5017238;27;97152;-52
2024/01/21 05:10:24;;;;;;;1.87;1.50;;;;;;;0.65;52.02;102047.50;5020059;27;97640;-52
2024/01/21 05:12:50;;;;;;;1.57;1.47;;;;;;;0.64;51.92;102035.81;5021027;27;97240;-52
2024/01/21 05:15:15;;;;;;;1.73;1.47;;;;;;;0.62;51.96;102040.13;5019195;27;96794;-52
2024/01/21 05:17:41;;;;;;;2.43;1.33;;;;;;;0.60;51.97;102035.13;5019933;27;96883;-52
2024/01/21 05:20:08;;;;;;;3.50;2.00;;;;;;;0.60;52.11;102031.63;5016707;27;97311;-52
2024/01/21 05:22:34;;;;;;;5.63;2.07;;;;;;;0.57;52.19;102041.38;5019137;27;96924;-52
2024/01/21 05:25:00;;;;;;;2.93;1.30;;;;;;;0.57;52.04;102035.94;5019985;27;96836;-52
2024/01/21 05:27:25;;;;;;;2.10;1.90;;;;;;;0.58;52.27;102037.47;5018220;27;96631;-52
2024/01/21 05:29:51;;;;;;;1.40;1.30;;;;;;;0.55;52.03;102030.13;5016401;27;98163;-52
2024/01/21 05:32:16;;;;;;;1.63;1.50;;;;;;;0.53;52.11;102035.22;5016289;27;97287;-52
2024/01/21 05:34:41;;;;;;;1.83;1.70;;;;;;;0.53;52.00;102032.50;5017349;27;96935;-52
2024/01/21 05:37:07;;;;;;;1.67;1.57;;;;;;;0.52;51.80;102028.22;5018808;27;96998;-52
2024/01/21 05:39:32;;;;;;;2.63;1.90;;;;;;;0.55;52.20;102027.41;5016212;27;97396;-52
2024/01/21 05:42:05;;;;;;;1.80;1.70;;;;;;;0.56;51.54;102018.06;5021990;27;97177;-52
2024/01/21 05:44:31;;;;;;;2.37;1.80;;;;;;;0.56;51.82;102028.19;5015600;27;97024;-52
2024/01/21 05:46:56;;;;;;;1.70;1.60;;;;;;;0.54;51.90;102009.50;5019388;27;96859;-52
2024/01/21 05:49:25;;;;;;;2.70;1.63;;;;;;;0.52;52.10;102005.69;5016879;27;97433;-52
2024/01/21 05:51:50;;;;;;;2.80;1.83;;;;;;;0.50;51.84;101992.47;5014082;27;97148;-52
2024/01/21 05:54:16;;;;;;;2.63;1.73;;;;;;;0.49;52.09;101992.88;5016409;27;97377;-52
2024/01/21 05:56:42;;;;;;;1.80;1.70;;;;;;;0.46;51.75;102010.81;5017740;27;97302;-52
2024/01/21 05:59:07;;;;;;;1.93;1.60;;;;;;;0.45;51.64;101989.47;5020764;27;96711;-52
2024/01/21 06:01:33;;;;;;;2.03;1.83;;;;;;;0.40;51.70;101979.81;5017726;27;97096;-52
2024/01/21 06:03:58;;;;;;;2.03;1.70;;;;;;;0.39;52.03;101970.09;5015059;27;96895;-52
2024/01/21 06:06:23;;;;;;;3.30;2.00;;;;;;;0.38;51.73;101968.56;5017109;27;97106;-52
2024/01/21 06:08:49;;;;;;;1.90;1.80;;;;;;;0.38;51.82;101971.28;5019795;27;97113;-52
2024/01/21 06:11:14;;;;;;;2.00;1.90;;;;;;;0.38;52.01;101963.13;5017626;27;97206;-52
2024/01/21 06:13:39;;;;;;;1.90;1.80;;;;;;;0.42;51.82;101960.34;5016443;27;97021;-52
2024/01/21 06:16:05;;;;;;;2.10;1.97;;;;;;;0.42;51.74;101954.88;5016419;27;97329;-52
2024/01/21 06:18:30;;;;;;;1.70;1.60;;;;;;;0.42;51.71;101942.06;5015854;27;96978;-52
2024/01/21 06:20:56;;;;;;;1.70;1.60;;;;;;;0.47;51.67;101946.25;5024033;27;97368;-52
2024/01/21 06:23:21;;;;;;;1.97;1.73;;;;;;;0.46;51.63;101953.66;5019329;27;97377;-52
2024/01/21 06:25:46;;;;;;;2.03;1.83;;;;;;;0.47;51.39;101948.97;5018388;27;96950;-52
2024/01/21 06:28:12;;;;;;;2.37;1.73;;;;;;;0.46;51.41;101945.47;5021009;27;98711;-52
2024/01/21 06:30:37;;;;;;;1.67;1.50;;;;;;;0.50;51.08;101932.56;5022136;27;97311;-52
2024/01/21 06:33:03;;;;;;;2.23;2.07;;;;;;;0.51;51.33;101936.84;5020605;27;96935;-52
2024/01/21 06:35:28;;;;;;;2.17;1.70;;;;;;;0.54;51.40;101927.81;5021737;27;97659;-52
2024/01/21 06:37:54;;;;;;;2.03;1.90;;;;;;;0.55;51.05;101920.44;5024738;27;97410;-52
2024/01/21 06:40:19;;;;;;;2.90;2.13;;;;;;;0.53;51.23;101918.13;5023927;27;96639;-52
2024/01/21 06:42:45;;;;;;;1.70;1.60;;;;;;;0.53;51.02;101914.63;5023723;27;96778;-52
2024/01/21 06:45:14;;;;;;;1.93;1.83;;;;;;;0.50;51.32;101899.91;5023297;27;97105;-52
2024/01/21 06:47:40;;;;;;;1.97;1.70;;;;;;;0.45;51.20;101903.13;5020533;27;97782;-52
2024/01/21 06:50:06;;;;;;;1.70;1.60;;;;;;;0.43;50.99;101897.31;5018637;27;97393;-52
2024/01/21 06:52:31;;;;;;;1.77;1.50;;;;;;;0.38;50.84;101903.25;5020509;27;97403;-52
2024/01/21 06:54:56;;;;;;;2.00;1.90;;;;;;;0.39;51.16;101893.88;5018824;27;96776;-52
2024/01/21 06:57:22;;;;;;;2.40;2.20;;;;;;;0.42;50.81;101900.44;5024136;27;97673;-52
2024/01/21 06:59:48;;;;;;;1.77;1.67;;;;;;;0.43;50.63;101878.25;5021182;27;97838;-52
2024/01/21 07:02:14;;;;;;;2.83;2.17;;;;;;;0.46;50.74;101871.19;5020743;27;97198;-52
2024/01/21 07:04:39;;;;;;;1.90;1.80;;;;;;;0.49;50.83;101873.09;5019900;27;97214;-52
2024/01/21 07:07:04;;;;;;;2.10;1.93;;;;;;;0.51;50.82;101862.56;5020827;27;97291;-52
2024/01/21 07:09:30;;;;;;;1.60;1.50;;;;;;;0.50;50.68;101864.50;5020633;27;97494;-52
2024/01/21 07:11:55;;;;;;;3.70;2.10;;;;;;;0.52;50.50;101870.28;5017871;27;97215;-52
2024/01/21 07:14:21;;;;;;;1.93;1.67;;;;;;;0.58;50.66;101867.88;5021149;27;96885;-52
2024/01/21 07:16:46;;;;;;;2.13;1.93;;;;;;;0.62;50.19;101872.06;5018418;27;97640;-52
2024/01/21 07:19:12;;;;;;;2.77;2.20;;;;;;;0.64;50.25;101868.91;5021185;27;97248;-52
2024/01/21 07:21:37;;;;;;;1.90;1.80;;;;;;;0.67;50.40;101866.13;5019843;27;97005;-52
2024/01/21 07:24:03;;;;;;;2.40;1.83;;;;;;;0.70;49.78;101857.13;5020223;27;96920;-52
2024/01/21 07:26:29;;;;;;;2.37;2.17;;;;;;;0.75;49.99;101859.38;5020158;27;96981;-52
2024/01/21 07:28:54;;;;;;;2.07;1.93;;;;;;;0.77;49.93;101843.38;5019521;27;97142;-52
2024/01/21 07:31:19;;;;;;;2.33;1.97;;;;;;;0.81;49.81;101844.06;5021278;27;97323;-52
2024/01/21 07:33:45;;;;;;;4.63;1.77;;;;;;;0.84;49.66;101842.47;5019921;27;96977;-52
2024/01/21 07:36:11;;;;;;;1.83;1.50;;;;;;;0.85;49.62;101841.25;5022163;27;97577;-52
2024/01/21 07:38:36;;;;;;;2.07;1.90;;;;;;;0.89;49.08;101834.56;5018979;27;97351;-52
2024/01/21 07:41:03;;;;;;;2.90;2.07;;;;;;;0.92;49.50;101833.72;5019177;27;96957;-52
2024/01/21 07:43:29;;;;;;;2.90;2.20;;;;;;;0.96;49.11;101823.50;5021521;27;97279;-52
2024/01/21 07:45:55;;;;;;;2.20;2.00;;;;;;;1.00;49.25;101820.69;5021034;27;96761;-52
2024/01/21 07:48:20;;;;;;;3.07;2.30;;;;;;;1.01;49.29;101820.31;5019747;27;98453;-52
2024/01/21 07:50:46;;;;;;;3.73;2.53;;;;;;;1.02;49.22;101824.53;5018334;27;97140;-52
2024/01/21 07:53:12;;;;;;;2.30;2.10;;;;;;;1.06;49.13;101819.78;5018865;27;96870;-52
2024/01/21 07:55:37;;;;;;;2.90;2.47;;;;;;;1.09;49.14;101814.69;5018567;27;97221;-52
2024/01/21 07:58:03;;;;;;;2.63;2.30;;;;;;;1.14;49.06;101822.34;5017564;27;96709;-52
2024/01/21 08:00:28;;;;;;;4.33;2.60;;;;;;;1.18;49.13;101823.81;5018549;27;96758;-52
2024/01/21 08:02:54;;;;;;;2.23;2.07;;;;;;;1.18;49.31;101842.13;5018710;27;96867;-52
2024/01/21 08:05:20;;;;;;;2.23;2.03;;;;;;;1.22;49.14;101840.13;5018159;27;96656;-52
2024/01/21 08:07:45;;;;;;;3.57;2.10;;;;;;;1.25;49.14;101837.31;5016485;27;97254;-52
2024/01/21 08:10:11;;;;;;;3.50;2.30;;;;;;;1.28;49.02;101833.75;5016587;27;97009;-52
2024/01/21 08:12:36;;;;;;;2.20;2.10;;;;;;;1.31;48.96;101805.63;5014977;27;96678;-52
2024/01/21 08:15:03;;;;;;;1.80;1.70;;;;;;;1.33;48.65;101818.81;5015788;27;97293;-52
2024/01/21 08:17:28;;;;;;;2.30;2.10;;;;;;;1.38;48.68;101815.59;5016830;27;97772;-52
2024/01/21 08:19:53;;;;;;;2.20;1.70;;;;;;;1.42;48.50;101817.03;5016641;27;96935;-52
2024/01/21 08:22:19;;;;;;;2.10;1.80;;;;;;;1.47;48.62;101807.59;5019440;27;97335;-52
2024/01/21 08:24:44;;;;;;;1.57;1.47;;;;;;;1.49;48.49;101803.25;5019946;27;97317;-52
2024/01/21 08:27:09;;;;;;;2.37;1.90;;;;;;;1.53;48.33;101803.94;5018363;27;97566;-52
2024/01/21 08:29:38;;;;;;;1.37;1.27;;;;;;;1.54;47.80;101783.66;5016742;27;97391;-52
2024/01/21 08:32:06;;;;;;;2.53;1.60;;;;;;;1.60;48.31;101783.91;5018236;27;97612;-52
2024/01/21 08:34:31;;;;;;;2.00;1.80;;;;;;;1.62;48.39;101768.66;5021848;27;97110;-52
2024/01/21 08:36:56;;;;;;;1.77;1.67;;;;;;;1.65;48.16;101770.53;5015794;27;97306;-52
2024/01/21 08:39:22;;;;;;;1.93;1.67;;;;;;;1.70;48.33;101778.19;5018702;27;97232;-52
2024/01/21 08:41:47;;;;;;;1.77;1.67;;;;;;;1.72;48.18;101775.78;5018926;27;97044;-52
2024/01/21 08:44:12;;;;;;;2.27;2.07;;;;;;;1.76;48.03;101762.81;5018789;27;97710;-52
2024/01/21 08:46:38;;;;;;;2.47;1.90;;;;;;;1.77;48.14;101763.59;5018911;27;97517;-52
2024/01/21 08:49:03;;;;;;;2.30;2.10;;;;;;;1.78;47.98;101768.66;5022884;27;96840;-52
2024/01/21 08:51:29;;;;;;;1.80;1.70;;;;;;;1.81;47.75;101767.78;5016982;27;97025;-52
2024/01/21 08:53:57;;;;;;;2.00;1.80;;;;;;;1.82;48.13;101777.50;5016148;27;97829;-52
2024/01/21 08:56:26;;;;;;;1.77;1.67;;;;;;;1.87;47.97;101768.03;5019158;27;98543;-52
2024/01/21 08:58:52;;;;;;;1.47;1.37;;;;;;;1.87;47.65;101798.06;5021338;27;97326;-52
2024/01/21 09:01:17;;;;;;;2.00;1.90;;;;;;;1.89;48.00;101806.56;5019940;27;96903;-52
2024/01/21 09:03:43;;;;;;;1.80;1.70;;;;;;;1.90;47.69;101813.56;5017525;27;97527;-52
2024/01/21 09:06:09;;;;;;;3.07;1.87;;;;;;;1.94;48.04;101797.09;5017614;27;97270;-52
2024/01/21 09:08:34;;;;;;;2.90;1.90;;;;;;;1.96;47.59;101786.53;5014480;27;97522;-52
2024/01/21 09:11:00;;;;;;;1.50;1.40;;;;;;;1.99;47.90;101772.78;5018005;27;97317;-52
2024/01/21 09:13:26;;;;;;;1.93;1.70;;;;;;;2.01;48.21;101756.75;5017946;27;97533;-52
2024/01/21 09:15:51;;;;;;;2.30;2.10;;;;;;;2.04;47.63;101779.69;5017970;27;97592;-52
2024/01/21 09:18:16;;;;;;;1.83;1.70;;;;;;;2.06;47.37;101783.50;5018994;27;97175;-52
2024/01/21 09:20:42;;;;;;;1.83;1.73;;;;;;;2.11;47.32;101774.81;5018352;27;96709;-52
2024/01/21 09:23:07;;;;;;;2.90;1.70;;;;;;;2.14;47.31;101765.75;5016128;27;97264;-52
2024/01/21 09:25:32;;;;;;;2.20;1.70;;;;;;;2.17;46.80;101767.63;5010969;27;99268;-52
2024/01/21 09:27:58;;;;;;;2.30;2.07;;;;;;;2.17;46.74;101753.97;5016326;27;97040;-51
2024/01/21 09:30:23;;;;;;;2.20;1.73;;;;;;;2.17;47.20;101747.75;5022222;27;96783;-51
2024/01/21 09:32:50;;;;;;;2.13;1.97;;;;;;;2.16;46.91;101744.25;5019472;27;96661;-51
2024/01/21 09:35:15;;;;;;;1.57;1.47;;;;;;;2.20;47.39;101731.25;5016253;27;97320;-52
2024/01/21 09:37:41;;;;;;;1.40;1.30;;;;;;;2.22;46.92;101695.34;5012822;27;97743;-51
2024/01/21 09:40:07;;;;;;;3.00;1.60;;;;;;;2.21;46.87;101724.59;5018487;27;96969;-51
2024/01/21 09:42:32;;;;;;;2.37;1.83;;;;;;;2.23;46.91;101740.53;5018457;27;97286;-51
2024/01/21 09:44:58;;;;;;;2.50;2.10;;;;;;;2.28;46.77;101753.69;5022565;27;98055;-51
2024/01/21 09:47:24;;;;;;;1.87;1.77;;;;;;;2.32;46.81;101785.16;5016046;27;97267;-51
2024/01/21 09:49:51;;;;;;;2.93;1.73;;;;;;;2.37;46.38;101784.66;5021501;27;97115;-52
2024/01/21 09:52:18;;;;;;;2.17;1.70;;;;;;;2.40;46.42;101791.19;5019345;27;96932;-51
2024/01/21 09:54:45;;;;;;;2.40;2.20;;;;;;;2.46;46.77;101773.84;5016093;27;97152;-51
2024/01/21 09:57:12;;;;;;;1.77;1.67;;;;;;;2.51;46.68;101767.09;5017661;27;97091;-51
2024/01/21 09:59:39;;;;;;;2.70;1.90;;;;;;;2.55;46.61;101795.06;5017929;27;96962;-51
2024/01/21 10:02:13;;;;;;;2.10;2.00;;;;;;;2.57;46.21;101808.31;5018461;27;97065;-51
2024/01/21 10:04:39;;;;;;;2.37;2.00;;;;;;;2.57;46.45;101807.09;5014781;27;97151;-51
2024/01/21 10:07:05;;;;;;;1.80;1.60;;;;;;;2.57;46.24;101798.16;5017437;27;96735;-52
2024/01/21 10:09:30;;;;;;;2.23;2.13;;;;;;;2.59;46.46;101784.06;5021443;27;97121;-52
2024/01/21 10:11:57;;;;;;;1.60;1.50;;;;;;;2.62;46.38;101780.44;5022098;27;97637;-51
2024/01/21 10:14:27;;;;;;;2.10;1.90;;;;;;;2.68;46.43;101784.19;5018589;27;97505;-51
2024/01/21 10:16:54;;;;;;;1.93;1.80;;;;;;;2.73;46.37;101775.44;5021745;27;97342;-51
2024/01/21 10:19:31;;;;;;;2.50;2.30;;;;;;;2.76;45.44;101780.06;5025236;27;96956;-52
2024/01/21 10:22:18;;;;;;;2.37;2.17;;;;;;;2.77;44.01;101785.06;5018736;27;98552;-52
2024/01/21 10:24:45;;;;;;;1.63;1.53;;;;;;;2.78;45.97;101770.22;5019220;27;96790;-52
2024/01/21 10:27:11;;;;;;;2.30;1.93;;;;;;;2.80;46.00;101743.22;5019604;27;97046;-51
2024/01/21 10:29:41;;;;;;;2.10;1.83;;;;;;;2.81;45.65;101752.94;5020381;27;97108;-51
2024/01/21 10:32:08;;;;;;;2.60;1.70;;;;;;;2.90;45.93;101744.13;5022381;27;97174;-52
2024/01/21 10:34:33;;;;;;;1.80;1.70;;;;;;;2.93;45.59;101727.59;5017329;27;97217;-52
2024/01/21 10:37:03;;;;;;;1.63;1.50;;;;;;;2.97;45.33;101741.16;5020652;27;96968;-51
2024/01/21 10:39:32;;;;;;;2.03;1.47;;;;;;;3.00;45.67;101735.59;5021046;27;96810;-52
2024/01/21 10:41:59;;;;;;;2.30;1.87;;;;;;;3.06;45.91;101731.09;5016801;27;98565;-52
2024/01/21 10:44:25;;;;;;;2.20;1.73;;;;;;;3.12;45.52;101712.16;5020478;27;98506;-52
2024/01/21 10:46:51;;;;;;;2.50;1.60;;;;;;;3.16;45.69;101705.38;5019972;27;97217;-52
2024/01/21 10:49:17;;;;;;;2.77;2.17;;;;;;;3.20;45.64;101717.00;5018289;27;97483;-51
2024/01/21 10:51:44;;;;;;;2.23;2.00;;;;;;;3.23;45.65;101715.31;5022058;27;98464;-52
2024/01/21 10:54:11;;;;;;;3.50;2.30;;;;;;;3.25;45.57;101704.69;5021529;27;97131;-52
2024/01/21 10:56:36;;;;;;;3.70;2.37;;;;;;;3.28;45.51;101706.56;5017384;27;96767;-52
2024/01/21 10:59:02;;;;;;;2.00;1.90;;;;;;;3.30;45.35;101720.56;5021551;27;96967;-52
2024/01/21 11:01:28;;;;;;;2.10;2.00;;;;;;;3.35;45.39;101716.50;5020475;27;98642;-52
2024/01/21 11:04:07;;;;;;;1.93;1.80;;;;;;;3.40;44.11;101713.22;5020573;27;98969;-52
2024/01/21 11:06:33;;;;;;;2.80;1.80;;;;;;;3.41;45.19;101731.94;5021318;27;97094;-52
2024/01/21 11:09:03;;;;;;;2.20;2.00;;;;;;;3.41;45.30;101726.47;5022839;27;97138;-52
2024/01/21 11:11:28;;;;;;;1.80;1.53;;;;;;;3.43;45.25;101740.47;5017245;27;97281;-53
2024/01/21 11:13:54;;;;;;;3.03;1.90;;;;;;;3.45;44.90;101729.84;5022085;27;97270;-52
2024/01/21 11:16:26;;;;;;;1.57;1.47;;;;;;;3.49;44.21;101724.28;5023628;27;101281;-52
2024/01/21 11:18:58;;;;;;;2.07;1.87;;;;;;;3.47;45.29;101721.97;5024816;27;97421;-52
2024/01/21 11:21:29;;;;;;;1.63;1.53;;;;;;;3.50;45.17;101703.91;5022621;27;97218;-52
2024/01/21 11:23:58;;;;;;;1.90;1.73;;;;;;;3.51;44.98;101714.38;5021835;27;98509;-52
2024/01/21 11:26:23;;;;;;;1.73;1.63;;;;;;;3.54;45.24;101712.75;5020611;27;97455;-52
2024/01/21 11:28:49;;;;;;;2.07;1.87;;;;;;;3.56;45.38;101727.53;5017511;27;96844;-54